sensor_id;sensor_type;location;lat;lon;timestamp;P1;durP1;ratioP1;P2;durP2;ratioP2
74328;SDS011;62745;51.060;13.786;2023-05-07T00:00:05;14.33;;;7.10;;
74328;SDS011;62745;51.060;13.786;2023-05-07T00:02:33;12.18;;;6.55;;
74328;SDS011;62745;51.060;13.786;2023-05-07T00:04:58;14.93;;;8.15;;
74328;SDS011;62745;51.060;13.786;2023-05-07T00:07:23;15.07;;;7.63;;
74328;SDS011;62745;51.060;13.786;2023-05-07T00:09:49;15.68;;;8.38;;
74328;SDS011;62745;51.060;13.786;2023-05-07T00:12:14;18.75;;;7.93;;
74328;SDS011;62745;51.060;13.786;2023-05-07T00:14:39;15.07;;;7.40;;
74328;SDS011;62745;51.060;13.786;2023-05-07T00:17:04;14.77;;;7.63;;
74328;SDS011;62745;51.060;13.786;2023-05-07T00:19:30;17.43;;;8.50;;
74328;SDS011;62745;51.060;13.786;2023-05-07T00:21:55;15.33;;;8.27;;
74328;SDS011;62745;51.060;13.786;2023-05-07T00:24:21;16.83;;;8.40;;
74328;SDS011;62745;51.060;13.786;2023-05-07T00:26:46;18.02;;;8.45;;
74328;SDS011;62745;51.060;13.786;2023-05-07T00:29:12;16.83;;;8.37;;
74328;SDS011;62745;51.060;13.786;2023-05-07T00:31:37;16.33;;;8.30;;
74328;SDS011;62745;51.060;13.786;2023-05-07T00:34:02;16.90;;;8.97;;
74328;SDS011;62745;51.060;13.786;2023-05-07T00:36:27;16.73;;;9.13;;
74328;SDS011;62745;51.060;13.786;2023-05-07T00:38:54;15.77;;;8.68;;
74328;SDS011;62745;51.060;13.786;2023-05-07T00:41:20;16.77;;;9.68;;
74328;SDS011;62745;51.060;13.786;2023-05-07T00:43:45;19.10;;;10.07;;
74328;SDS011;62745;51.060;13.786;2023-05-07T00:46:10;21.00;;;10.13;;
74328;SDS011;62745;51.060;13.786;2023-05-07T00:48:37;18.00;;;9.80;;
74328;SDS011;62745;51.060;13.786;2023-05-07T00:51:02;18.63;;;9.90;;
74328;SDS011;62745;51.060;13.786;2023-05-07T00:53:27;17.13;;;9.38;;
74328;SDS011;62745;51.060;13.786;2023-05-07T00:55:53;19.10;;;10.53;;
74328;SDS011;62745;51.060;13.786;2023-05-07T00:58:18;16.75;;;8.98;;
74328;SDS011;62745;51.060;13.786;2023-05-07T01:00:44;18.30;;;8.93;;
74328;SDS011;62745;51.060;13.786;2023-05-07T01:03:10;15.50;;;8.73;;
74328;SDS011;62745;51.060;13.786;2023-05-07T01:05:35;14.73;;;8.33;;
74328;SDS011;62745;51.060;13.786;2023-05-07T01:08:01;16.70;;;8.93;;
74328;SDS011;62745;51.060;13.786;2023-05-07T01:10:27;17.17;;;8.93;;
74328;SDS011;62745;51.060;13.786;2023-05-07T01:12:55;17.38;;;10.00;;
74328;SDS011;62745;51.060;13.786;2023-05-07T01:15:20;14.97;;;8.23;;
74328;SDS011;62745;51.060;13.786;2023-05-07T01:17:45;15.20;;;8.03;;
74328;SDS011;62745;51.060;13.786;2023-05-07T01:20:11;14.70;;;8.85;;
74328;SDS011;62745;51.060;13.786;2023-05-07T01:22:37;17.35;;;9.10;;
74328;SDS011;62745;51.060;13.786;2023-05-07T01:25:04;15.95;;;8.27;;
74328;SDS011;62745;51.060;13.786;2023-05-07T01:27:30;14.93;;;8.93;;
74328;SDS011;62745;51.060;13.786;2023-05-07T01:29:56;16.10;;;8.80;;
74328;SDS011;62745;51.060;13.786;2023-05-07T01:32:23;14.13;;;8.00;;
74328;SDS011;62745;51.060;13.786;2023-05-07T01:34:53;14.40;;;7.78;;
74328;SDS011;62745;51.060;13.786;2023-05-07T01:37:20;15.68;;;8.95;;
74328;SDS011;62745;51.060;13.786;2023-05-07T01:39:46;14.57;;;8.25;;
74328;SDS011;62745;51.060;13.786;2023-05-07T01:42:13;16.65;;;9.63;;
74328;SDS011;62745;51.060;13.786;2023-05-07T01:44:38;13.50;;;7.82;;
74328;SDS011;62745;51.060;13.786;2023-05-07T01:47:03;12.57;;;7.28;;
74328;SDS011;62745;51.060;13.786;2023-05-07T01:49:29;14.10;;;8.48;;
74328;SDS011;62745;51.060;13.786;2023-05-07T01:51:55;11.63;;;7.38;;
74328;SDS011;62745;51.060;13.786;2023-05-07T01:54:24;15.52;;;7.80;;
74328;SDS011;62745;51.060;13.786;2023-05-07T01:56:52;13.93;;;8.23;;
74328;SDS011;62745;51.060;13.786;2023-05-07T01:59:17;15.20;;;8.23;;
74328;SDS011;62745;51.060;13.786;2023-05-07T02:01:43;12.07;;;7.53;;
74328;SDS011;62745;51.060;13.786;2023-05-07T02:04:08;14.70;;;8.20;;
74328;SDS011;62745;51.060;13.786;2023-05-07T02:06:33;14.40;;;8.50;;
74328;SDS011;62745;51.060;13.786;2023-05-07T02:08:58;15.93;;;8.70;;
74328;SDS011;62745;51.060;13.786;2023-05-07T02:11:24;16.03;;;8.67;;
74328;SDS011;62745;51.060;13.786;2023-05-07T02:13:50;15.68;;;8.43;;
74328;SDS011;62745;51.060;13.786;2023-05-07T02:16:15;15.57;;;8.63;;
74328;SDS011;62745;51.060;13.786;2023-05-07T02:18:40;17.03;;;9.00;;
74328;SDS011;62745;51.060;13.786;2023-05-07T02:21:05;16.10;;;8.60;;
74328;SDS011;62745;51.060;13.786;2023-05-07T02:23:31;15.00;;;8.10;;
74328;SDS011;62745;51.060;13.786;2023-05-07T02:25:56;16.03;;;8.73;;
74328;SDS011;62745;51.060;13.786;2023-05-07T02:28:21;13.90;;;7.23;;
74328;SDS011;62745;51.060;13.786;2023-05-07T02:30:46;13.60;;;8.20;;
74328;SDS011;62745;51.060;13.786;2023-05-07T02:33:12;15.63;;;8.40;;
74328;SDS011;62745;51.060;13.786;2023-05-07T02:35:38;13.55;;;7.80;;
74328;SDS011;62745;51.060;13.786;2023-05-07T02:38:04;13.33;;;7.93;;
74328;SDS011;62745;51.060;13.786;2023-05-07T02:40:29;14.53;;;8.17;;
74328;SDS011;62745;51.060;13.786;2023-05-07T02:42:54;13.47;;;7.40;;
74328;SDS011;62745;51.060;13.786;2023-05-07T02:45:20;13.27;;;7.43;;
74328;SDS011;62745;51.060;13.786;2023-05-07T02:47:45;14.70;;;7.67;;
74328;SDS011;62745;51.060;13.786;2023-05-07T02:50:11;13.60;;;7.53;;
74328;SDS011;62745;51.060;13.786;2023-05-07T02:52:36;11.47;;;6.80;;
74328;SDS011;62745;51.060;13.786;2023-05-07T02:55:01;12.67;;;7.23;;
74328;SDS011;62745;51.060;13.786;2023-05-07T02:57:27;11.52;;;6.63;;
74328;SDS011;62745;51.060;13.786;2023-05-07T02:59:52;12.60;;;6.50;;
74328;SDS011;62745;51.060;13.786;2023-05-07T03:02:17;13.20;;;5.60;;
74328;SDS011;62745;51.060;13.786;2023-05-07T03:04:43;10.77;;;5.87;;
74328;SDS011;62745;51.060;13.786;2023-05-07T03:07:08;11.17;;;5.63;;
74328;SDS011;62745;51.060;13.786;2023-05-07T03:09:33;10.60;;;6.10;;
74328;SDS011;62745;51.060;13.786;2023-05-07T03:11:58;11.13;;;5.53;;
74328;SDS011;62745;51.060;13.786;2023-05-07T03:14:24;11.82;;;6.28;;
74328;SDS011;62745;51.060;13.786;2023-05-07T03:16:49;11.57;;;6.47;;
74328;SDS011;62745;51.060;13.786;2023-05-07T03:19:15;12.23;;;6.70;;
74328;SDS011;62745;51.060;13.786;2023-05-07T03:21:40;17.48;;;7.57;;
74328;SDS011;62745;51.060;13.786;2023-05-07T03:24:06;13.43;;;7.10;;
74328;SDS011;62745;51.060;13.786;2023-05-07T03:26:31;13.68;;;7.70;;
74328;SDS011;62745;51.060;13.786;2023-05-07T03:28:56;16.73;;;8.23;;
74328;SDS011;62745;51.060;13.786;2023-05-07T03:31:21;18.13;;;7.83;;
74328;SDS011;62745;51.060;13.786;2023-05-07T03:33:53;15.13;;;7.93;;
74328;SDS011;62745;51.060;13.786;2023-05-07T03:36:20;17.25;;;8.20;;
74328;SDS011;62745;51.060;13.786;2023-05-07T03:38:46;22.90;;;8.77;;
74328;SDS011;62745;51.060;13.786;2023-05-07T03:41:11;15.30;;;7.57;;
74328;SDS011;62745;51.060;13.786;2023-05-07T03:43:37;18.77;;;8.68;;
74328;SDS011;62745;51.060;13.786;2023-05-07T03:46:02;18.77;;;7.80;;
74328;SDS011;62745;51.060;13.786;2023-05-07T03:48:27;18.50;;;8.17;;
74328;SDS011;62745;51.060;13.786;2023-05-07T03:50:52;19.57;;;9.43;;
74328;SDS011;62745;51.060;13.786;2023-05-07T03:53:17;19.00;;;9.50;;
74328;SDS011;62745;51.060;13.786;2023-05-07T03:55:43;19.57;;;9.47;;
74328;SDS011;62745;51.060;13.786;2023-05-07T03:58:08;20.00;;;10.20;;
74328;SDS011;62745;51.060;13.786;2023-05-07T04:00:33;20.73;;;9.43;;
74328;SDS011;62745;51.060;13.786;2023-05-07T04:03:03;19.30;;;9.13;;
74328;SDS011;62745;51.060;13.786;2023-05-07T04:05:29;20.92;;;9.65;;
74328;SDS011;62745;51.060;13.786;2023-05-07T04:07:54;19.75;;;10.10;;
74328;SDS011;62745;51.060;13.786;2023-05-07T04:10:20;19.73;;;9.87;;
74328;SDS011;62745;51.060;13.786;2023-05-07T04:12:45;18.67;;;8.50;;
74328;SDS011;62745;51.060;13.786;2023-05-07T04:15:10;16.90;;;8.70;;
74328;SDS011;62745;51.060;13.786;2023-05-07T04:17:35;19.27;;;8.80;;
74328;SDS011;62745;51.060;13.786;2023-05-07T04:20:01;17.45;;;8.35;;
74328;SDS011;62745;51.060;13.786;2023-05-07T04:22:26;17.83;;;8.90;;
74328;SDS011;62745;51.060;13.786;2023-05-07T04:24:51;14.27;;;7.63;;
74328;SDS011;62745;51.060;13.786;2023-05-07T04:27:17;17.63;;;8.77;;
74328;SDS011;62745;51.060;13.786;2023-05-07T04:29:42;17.10;;;8.03;;
74328;SDS011;62745;51.060;13.786;2023-05-07T04:32:08;16.63;;;7.68;;
74328;SDS011;62745;51.060;13.786;2023-05-07T04:34:34;16.70;;;8.57;;
74328;SDS011;62745;51.060;13.786;2023-05-07T04:36:59;15.73;;;8.50;;
74328;SDS011;62745;51.060;13.786;2023-05-07T04:39:25;15.82;;;7.50;;
74328;SDS011;62745;51.060;13.786;2023-05-07T04:41:50;18.57;;;9.30;;
74328;SDS011;62745;51.060;13.786;2023-05-07T04:44:15;18.50;;;8.80;;
74328;SDS011;62745;51.060;13.786;2023-05-07T04:46:41;17.10;;;8.68;;
74328;SDS011;62745;51.060;13.786;2023-05-07T04:49:07;17.95;;;8.45;;
74328;SDS011;62745;51.060;13.786;2023-05-07T04:51:32;17.23;;;8.93;;
74328;SDS011;62745;51.060;13.786;2023-05-07T04:53:57;16.55;;;8.70;;
74328;SDS011;62745;51.060;13.786;2023-05-07T04:56:23;19.40;;;8.53;;
74328;SDS011;62745;51.060;13.786;2023-05-07T04:58:48;17.13;;;8.17;;
74328;SDS011;62745;51.060;13.786;2023-05-07T05:01:13;15.70;;;7.40;;
74328;SDS011;62745;51.060;13.786;2023-05-07T05:03:38;13.43;;;7.23;;
74328;SDS011;62745;51.060;13.786;2023-05-07T05:06:04;15.38;;;7.85;;
74328;SDS011;62745;51.060;13.786;2023-05-07T05:08:30;16.20;;;7.20;;
74328;SDS011;62745;51.060;13.786;2023-05-07T05:10:56;15.35;;;7.28;;
74328;SDS011;62745;51.060;13.786;2023-05-07T05:13:21;13.37;;;7.10;;
74328;SDS011;62745;51.060;13.786;2023-05-07T05:15:46;13.87;;;7.10;;
74328;SDS011;62745;51.060;13.786;2023-05-07T05:18:11;14.13;;;6.77;;
74328;SDS011;62745;51.060;13.786;2023-05-07T05:20:37;14.77;;;7.47;;
74328;SDS011;62745;51.060;13.786;2023-05-07T05:23:02;12.57;;;6.90;;
74328;SDS011;62745;51.060;13.786;2023-05-07T05:25:27;13.48;;;8.02;;
74328;SDS011;62745;51.060;13.786;2023-05-07T05:27:53;14.93;;;8.10;;
74328;SDS011;62745;51.060;13.786;2023-05-07T05:30:18;16.57;;;8.20;;
74328;SDS011;62745;51.060;13.786;2023-05-07T05:32:43;15.47;;;7.73;;
74328;SDS011;62745;51.060;13.786;2023-05-07T05:35:09;16.87;;;8.23;;
74328;SDS011;62745;51.060;13.786;2023-05-07T05:37:34;14.33;;;7.97;;
74328;SDS011;62745;51.060;13.786;2023-05-07T05:39:59;17.97;;;8.67;;
74328;SDS011;62745;51.060;13.786;2023-05-07T05:42:24;17.27;;;8.47;;
74328;SDS011;62745;51.060;13.786;2023-05-07T05:44:50;16.13;;;8.70;;
74328;SDS011;62745;51.060;13.786;2023-05-07T05:47:15;14.87;;;7.90;;
74328;SDS011;62745;51.060;13.786;2023-05-07T05:49:40;14.05;;;7.50;;
74328;SDS011;62745;51.060;13.786;2023-05-07T05:52:08;15.00;;;7.15;;
74328;SDS011;62745;51.060;13.786;2023-05-07T05:54:33;13.03;;;7.10;;
74328;SDS011;62745;51.060;13.786;2023-05-07T05:56:58;11.37;;;5.77;;
74328;SDS011;62745;51.060;13.786;2023-05-07T05:59:23;11.57;;;6.05;;
74328;SDS011;62745;51.060;13.786;2023-05-07T06:01:49;11.73;;;6.10;;
74328;SDS011;62745;51.060;13.786;2023-05-07T06:04:14;11.73;;;5.95;;
74328;SDS011;62745;51.060;13.786;2023-05-07T06:06:40;11.05;;;5.13;;
74328;SDS011;62745;51.060;13.786;2023-05-07T06:09:06;11.40;;;5.67;;
74328;SDS011;62745;51.060;13.786;2023-05-07T06:11:31;11.20;;;5.53;;
74328;SDS011;62745;51.060;13.786;2023-05-07T06:13:57;9.70;;;5.32;;
74328;SDS011;62745;51.060;13.786;2023-05-07T06:16:22;12.37;;;5.93;;
74328;SDS011;62745;51.060;13.786;2023-05-07T06:18:49;11.23;;;5.93;;
74328;SDS011;62745;51.060;13.786;2023-05-07T06:21:14;8.37;;;4.53;;
74328;SDS011;62745;51.060;13.786;2023-05-07T06:23:40;8.85;;;4.57;;
74328;SDS011;62745;51.060;13.786;2023-05-07T06:26:05;9.07;;;4.93;;
74328;SDS011;62745;51.060;13.786;2023-05-07T06:28:31;9.73;;;5.32;;
74328;SDS011;62745;51.060;13.786;2023-05-07T06:31:16;10.25;;;5.28;;
74328;SDS011;62745;51.060;13.786;2023-05-07T06:33:45;10.45;;;5.50;;
74328;SDS011;62745;51.060;13.786;2023-05-07T06:36:10;11.57;;;5.37;;
74328;SDS011;62745;51.060;13.786;2023-05-07T06:38:35;12.73;;;5.93;;
74328;SDS011;62745;51.060;13.786;2023-05-07T06:41:01;12.47;;;5.47;;
74328;SDS011;62745;51.060;13.786;2023-05-07T06:43:26;13.47;;;5.73;;
74328;SDS011;62745;51.060;13.786;2023-05-07T06:45:51;8.97;;;5.17;;
74328;SDS011;62745;51.060;13.786;2023-05-07T06:48:16;9.17;;;4.40;;
74328;SDS011;62745;51.060;13.786;2023-05-07T06:50:42;10.83;;;5.23;;
74328;SDS011;62745;51.060;13.786;2023-05-07T06:53:07;12.17;;;5.10;;
74328;SDS011;62745;51.060;13.786;2023-05-07T06:55:32;10.77;;;5.60;;
74328;SDS011;62745;51.060;13.786;2023-05-07T06:57:57;11.13;;;6.97;;
74328;SDS011;62745;51.060;13.786;2023-05-07T07:00:25;11.75;;;6.38;;
74328;SDS011;62745;51.060;13.786;2023-05-07T07:02:51;10.55;;;6.40;;
74328;SDS011;62745;51.060;13.786;2023-05-07T07:05:16;10.33;;;5.30;;
74328;SDS011;62745;51.060;13.786;2023-05-07T07:07:41;10.97;;;5.53;;
74328;SDS011;62745;51.060;13.786;2023-05-07T07:10:07;10.37;;;5.33;;
74328;SDS011;62745;51.060;13.786;2023-05-07T07:12:32;10.73;;;5.38;;
74328;SDS011;62745;51.060;13.786;2023-05-07T07:14:57;8.80;;;5.23;;
74328;SDS011;62745;51.060;13.786;2023-05-07T07:17:41;10.20;;;4.93;;
74328;SDS011;62745;51.060;13.786;2023-05-07T07:20:07;8.02;;;3.97;;
74328;SDS011;62745;51.060;13.786;2023-05-07T07:22:33;7.22;;;3.92;;
74328;SDS011;62745;51.060;13.786;2023-05-07T07:24:58;7.77;;;4.07;;
74328;SDS011;62745;51.060;13.786;2023-05-07T07:27:23;7.37;;;4.17;;
74328;SDS011;62745;51.060;13.786;2023-05-07T07:29:48;7.27;;;3.60;;
74328;SDS011;62745;51.060;13.786;2023-05-07T07:32:14;7.57;;;3.70;;
74328;SDS011;62745;51.060;13.786;2023-05-07T07:34:39;6.27;;;2.90;;
74328;SDS011;62745;51.060;13.786;2023-05-07T07:37:05;5.57;;;3.30;;
74328;SDS011;62745;51.060;13.786;2023-05-07T07:39:34;6.03;;;3.08;;
74328;SDS011;62745;51.060;13.786;2023-05-07T07:42:00;5.40;;;3.30;;
74328;SDS011;62745;51.060;13.786;2023-05-07T07:44:25;6.20;;;3.40;;
74328;SDS011;62745;51.060;13.786;2023-05-07T07:46:51;5.40;;;3.33;;
74328;SDS011;62745;51.060;13.786;2023-05-07T07:49:16;5.78;;;3.28;;
74328;SDS011;62745;51.060;13.786;2023-05-07T07:51:42;7.20;;;3.53;;
74328;SDS011;62745;51.060;13.786;2023-05-07T07:54:07;6.40;;;3.20;;
74328;SDS011;62745;51.060;13.786;2023-05-07T07:56:32;6.82;;;3.58;;
74328;SDS011;62745;51.060;13.786;2023-05-07T07:58:58;7.60;;;3.72;;
74328;SDS011;62745;51.060;13.786;2023-05-07T08:01:24;6.05;;;3.50;;
74328;SDS011;62745;51.060;13.786;2023-05-07T08:03:49;4.78;;;3.10;;
74328;SDS011;62745;51.060;13.786;2023-05-07T08:06:14;5.20;;;3.03;;
74328;SDS011;62745;51.060;13.786;2023-05-07T08:08:40;7.38;;;3.83;;
74328;SDS011;62745;51.060;13.786;2023-05-07T08:11:05;6.50;;;3.60;;
74328;SDS011;62745;51.060;13.786;2023-05-07T08:13:30;6.17;;;3.53;;
74328;SDS011;62745;51.060;13.786;2023-05-07T08:15:56;5.50;;;3.33;;
74328;SDS011;62745;51.060;13.786;2023-05-07T08:18:21;5.77;;;2.97;;
74328;SDS011;62745;51.060;13.786;2023-05-07T08:20:48;5.13;;;3.15;;
74328;SDS011;62745;51.060;13.786;2023-05-07T08:23:13;6.13;;;2.80;;
74328;SDS011;62745;51.060;13.786;2023-05-07T08:25:38;5.78;;;3.40;;
74328;SDS011;62745;51.060;13.786;2023-05-07T08:28:04;5.30;;;2.80;;
74328;SDS011;62745;51.060;13.786;2023-05-07T08:30:29;6.38;;;3.50;;
74328;SDS011;62745;51.060;13.786;2023-05-07T08:32:54;5.78;;;3.55;;
74328;SDS011;62745;51.060;13.786;2023-05-07T08:35:20;6.67;;;3.67;;
74328;SDS011;62745;51.060;13.786;2023-05-07T08:37:45;5.63;;;3.20;;
74328;SDS011;62745;51.060;13.786;2023-05-07T08:40:10;6.00;;;3.40;;
74328;SDS011;62745;51.060;13.786;2023-05-07T08:42:36;6.07;;;2.65;;
74328;SDS011;62745;51.060;13.786;2023-05-07T08:45:02;6.45;;;4.03;;
74328;SDS011;62745;51.060;13.786;2023-05-07T08:47:34;8.82;;;4.82;;
74328;SDS011;62745;51.060;13.786;2023-05-07T08:50:11;8.05;;;4.55;;
74328;SDS011;62745;51.060;13.786;2023-05-07T08:52:37;8.20;;;4.38;;
74328;SDS011;62745;51.060;13.786;2023-05-07T08:55:04;8.65;;;4.63;;
74328;SDS011;62745;51.060;13.786;2023-05-07T08:57:31;6.90;;;4.22;;
74328;SDS011;62745;51.060;13.786;2023-05-07T08:59:56;8.97;;;4.87;;
74328;SDS011;62745;51.060;13.786;2023-05-07T09:02:21;8.60;;;4.93;;
74328;SDS011;62745;51.060;13.786;2023-05-07T09:04:47;10.67;;;5.83;;
74328;SDS011;62745;51.060;13.786;2023-05-07T09:07:12;11.60;;;5.90;;
74328;SDS011;62745;51.060;13.786;2023-05-07T09:09:38;10.73;;;5.75;;
74328;SDS011;62745;51.060;13.786;2023-05-07T09:12:03;9.03;;;5.10;;
74328;SDS011;62745;51.060;13.786;2023-05-07T09:14:28;9.52;;;5.68;;
74328;SDS011;62745;51.060;13.786;2023-05-07T09:16:55;8.68;;;5.25;;
74328;SDS011;62745;51.060;13.786;2023-05-07T09:19:25;9.27;;;5.22;;
74328;SDS011;62745;51.060;13.786;2023-05-07T09:21:57;7.13;;;4.07;;
74328;SDS011;62745;51.060;13.786;2023-05-07T09:24:24;7.72;;;4.63;;
74328;SDS011;62745;51.060;13.786;2023-05-07T09:26:49;7.75;;;4.55;;
74328;SDS011;62745;51.060;13.786;2023-05-07T09:29:15;9.43;;;4.90;;
74328;SDS011;62745;51.060;13.786;2023-05-07T09:31:40;8.45;;;5.07;;
74328;SDS011;62745;51.060;13.786;2023-05-07T09:34:05;9.30;;;5.30;;
74328;SDS011;62745;51.060;13.786;2023-05-07T09:36:31;9.55;;;5.50;;
74328;SDS011;62745;51.060;13.786;2023-05-07T09:38:59;8.77;;;5.18;;
74328;SDS011;62745;51.060;13.786;2023-05-07T09:41:25;9.13;;;4.78;;
74328;SDS011;62745;51.060;13.786;2023-05-07T09:43:54;7.60;;;4.35;;
74328;SDS011;62745;51.060;13.786;2023-05-07T09:46:20;7.35;;;4.10;;
74328;SDS011;62745;51.060;13.786;2023-05-07T09:48:50;7.07;;;4.15;;
74328;SDS011;62745;51.060;13.786;2023-05-07T09:54:08;8.80;;;5.35;;
74328;SDS011;62745;51.060;13.786;2023-05-07T09:56:33;10.55;;;5.35;;
74328;SDS011;62745;51.060;13.786;2023-05-07T09:59:02;9.63;;;5.63;;
74328;SDS011;62745;51.060;13.786;2023-05-07T10:01:29;9.23;;;5.50;;
74328;SDS011;62745;51.060;13.786;2023-05-07T10:03:56;10.73;;;6.63;;
74328;SDS011;62745;51.060;13.786;2023-05-07T10:06:23;9.63;;;5.55;;
74328;SDS011;62745;51.060;13.786;2023-05-07T10:08:49;8.48;;;5.47;;
74328;SDS011;62745;51.060;13.786;2023-05-07T10:11:15;9.90;;;5.68;;
74328;SDS011;62745;51.060;13.786;2023-05-07T10:13:41;8.23;;;5.18;;
74328;SDS011;62745;51.060;13.786;2023-05-07T10:16:08;9.00;;;5.53;;
74328;SDS011;62745;51.060;13.786;2023-05-07T10:18:33;11.52;;;5.97;;
74328;SDS011;62745;51.060;13.786;2023-05-07T10:21:02;10.70;;;6.43;;
74328;SDS011;62745;51.060;13.786;2023-05-07T10:23:32;8.60;;;5.13;;
74328;SDS011;62745;51.060;13.786;2023-05-07T10:25:59;9.07;;;5.72;;
74328;SDS011;62745;51.060;13.786;2023-05-07T10:28:28;8.60;;;5.15;;
74328;SDS011;62745;51.060;13.786;2023-05-07T10:33:59;9.15;;;5.40;;
74328;SDS011;62745;51.060;13.786;2023-05-07T10:36:27;8.45;;;5.78;;
74328;SDS011;62745;51.060;13.786;2023-05-07T10:38:53;8.45;;;5.13;;
74328;SDS011;62745;51.060;13.786;2023-05-07T10:41:19;9.15;;;5.50;;
74328;SDS011;62745;51.060;13.786;2023-05-07T10:43:46;9.75;;;5.75;;
74328;SDS011;62745;51.060;13.786;2023-05-07T10:46:16;8.25;;;5.03;;
74328;SDS011;62745;51.060;13.786;2023-05-07T10:51:25;7.82;;;4.47;;
74328;SDS011;62745;51.060;13.786;2023-05-07T10:56:34;8.77;;;5.00;;
74328;SDS011;62745;51.060;13.786;2023-05-07T11:04:22;6.82;;;4.20;;
74328;SDS011;62745;51.060;13.786;2023-05-07T11:15:00;7.03;;;4.35;;
74328;SDS011;62745;51.060;13.786;2023-05-07T11:17:26;7.03;;;3.83;;
74328;SDS011;62745;51.060;13.786;2023-05-07T11:19:55;6.30;;;4.22;;
74328;SDS011;62745;51.060;13.786;2023-05-07T11:24:55;6.18;;;4.22;;
74328;SDS011;62745;51.060;13.786;2023-05-07T11:27:23;6.07;;;3.88;;
74328;SDS011;62745;51.060;13.786;2023-05-07T11:29:49;6.47;;;4.47;;
74328;SDS011;62745;51.060;13.786;2023-05-07T11:32:15;6.90;;;4.15;;
74328;SDS011;62745;51.060;13.786;2023-05-07T11:34:47;7.05;;;4.00;;
74328;SDS011;62745;51.060;13.786;2023-05-07T11:37:21;7.50;;;4.45;;
74328;SDS011;62745;51.060;13.786;2023-05-07T11:39:47;7.18;;;4.15;;
74328;SDS011;62745;51.060;13.786;2023-05-07T11:42:33;9.77;;;4.63;;
74328;SDS011;62745;51.060;13.786;2023-05-07T11:45:00;8.23;;;4.30;;
74328;SDS011;62745;51.060;13.786;2023-05-07T11:47:26;6.70;;;4.70;;
74328;SDS011;62745;51.060;13.786;2023-05-07T11:49:55;7.70;;;4.05;;
74328;SDS011;62745;51.060;13.786;2023-05-07T11:52:21;7.20;;;4.72;;
74328;SDS011;62745;51.060;13.786;2023-05-07T11:54:48;6.07;;;4.07;;
74328;SDS011;62745;51.060;13.786;2023-05-07T11:57:17;7.32;;;4.68;;
74328;SDS011;62745;51.060;13.786;2023-05-07T11:59:43;6.82;;;4.38;;
74328;SDS011;62745;51.060;13.786;2023-05-07T12:02:14;6.70;;;4.30;;
74328;SDS011;62745;51.060;13.786;2023-05-07T12:04:40;6.47;;;4.10;;
74328;SDS011;62745;51.060;13.786;2023-05-07T12:07:06;7.40;;;4.50;;
74328;SDS011;62745;51.060;13.786;2023-05-07T12:09:35;6.18;;;3.83;;
74328;SDS011;62745;51.060;13.786;2023-05-07T12:12:03;7.80;;;4.03;;
74328;SDS011;62745;51.060;13.786;2023-05-07T12:14:29;8.55;;;4.07;;
74328;SDS011;62745;51.060;13.786;2023-05-07T12:16:55;6.93;;;4.13;;
74328;SDS011;62745;51.060;13.786;2023-05-07T12:19:20;6.00;;;4.13;;
74328;SDS011;62745;51.060;13.786;2023-05-07T12:21:45;7.47;;;4.45;;
74328;SDS011;62745;51.060;13.786;2023-05-07T12:24:11;6.75;;;4.22;;
74328;SDS011;62745;51.060;13.786;2023-05-07T12:26:39;7.13;;;4.30;;
74328;SDS011;62745;51.060;13.786;2023-05-07T12:29:05;7.38;;;4.25;;
74328;SDS011;62745;51.060;13.786;2023-05-07T12:31:31;7.07;;;4.05;;
74328;SDS011;62745;51.060;13.786;2023-05-07T12:33:56;6.13;;;3.77;;
74328;SDS011;62745;51.060;13.786;2023-05-07T12:36:21;6.67;;;4.30;;
74328;SDS011;62745;51.060;13.786;2023-05-07T12:38:48;5.83;;;3.60;;
74328;SDS011;62745;51.060;13.786;2023-05-07T12:41:14;6.45;;;4.15;;
74328;SDS011;62745;51.060;13.786;2023-05-07T12:43:40;6.65;;;3.70;;
74328;SDS011;62745;51.060;13.786;2023-05-07T12:46:09;6.00;;;3.75;;
74328;SDS011;62745;51.060;13.786;2023-05-07T12:48:35;6.43;;;3.80;;
74328;SDS011;62745;51.060;13.786;2023-05-07T12:51:02;6.45;;;3.67;;
74328;SDS011;62745;51.060;13.786;2023-05-07T12:53:28;7.40;;;4.30;;
74328;SDS011;62745;51.060;13.786;2023-05-07T12:55:54;6.15;;;3.80;;
74328;SDS011;62745;51.060;13.786;2023-05-07T12:58:25;6.20;;;4.15;;
74328;SDS011;62745;51.060;13.786;2023-05-07T13:00:54;6.78;;;3.63;;
74328;SDS011;62745;51.060;13.786;2023-05-07T13:03:30;6.97;;;3.90;;
74328;SDS011;62745;51.060;13.786;2023-05-07T13:06:04;6.60;;;3.95;;
74328;SDS011;62745;51.060;13.786;2023-05-07T13:08:35;5.75;;;3.60;;
74328;SDS011;62745;51.060;13.786;2023-05-07T13:11:02;5.85;;;3.80;;
74328;SDS011;62745;51.060;13.786;2023-05-07T13:13:29;6.82;;;3.67;;
74328;SDS011;62745;51.060;13.786;2023-05-07T13:16:02;5.28;;;3.38;;
74328;SDS011;62745;51.060;13.786;2023-05-07T13:18:31;7.07;;;3.28;;
74328;SDS011;62745;51.060;13.786;2023-05-07T13:20:57;6.53;;;3.60;;
74328;SDS011;62745;51.060;13.786;2023-05-07T13:23:23;5.45;;;3.78;;
74328;SDS011;62745;51.060;13.786;2023-05-07T13:25:49;6.72;;;3.80;;
74328;SDS011;62745;51.060;13.786;2023-05-07T13:28:15;5.03;;;3.42;;
74328;SDS011;62745;51.060;13.786;2023-05-07T13:30:41;7.07;;;3.45;;
74328;SDS011;62745;51.060;13.786;2023-05-07T13:33:06;5.43;;;3.20;;
74328;SDS011;62745;51.060;13.786;2023-05-07T13:35:32;5.53;;;3.30;;
74328;SDS011;62745;51.060;13.786;2023-05-07T13:37:57;5.40;;;3.53;;
74328;SDS011;62745;51.060;13.786;2023-05-07T13:40:23;6.13;;;3.10;;
74328;SDS011;62745;51.060;13.786;2023-05-07T13:42:49;5.75;;;3.70;;
74328;SDS011;62745;51.060;13.786;2023-05-07T13:45:15;4.53;;;2.97;;
74328;SDS011;62745;51.060;13.786;2023-05-07T13:47:41;5.00;;;3.35;;
74328;SDS011;62745;51.060;13.786;2023-05-07T13:50:07;5.10;;;3.58;;
74328;SDS011;62745;51.060;13.786;2023-05-07T13:52:34;4.82;;;3.22;;
74328;SDS011;62745;51.060;13.786;2023-05-07T13:54:59;5.75;;;3.38;;
74328;SDS011;62745;51.060;13.786;2023-05-07T13:57:24;5.20;;;3.53;;
74328;SDS011;62745;51.060;13.786;2023-05-07T13:59:50;5.70;;;3.10;;
74328;SDS011;62745;51.060;13.786;2023-05-07T14:02:15;5.55;;;3.03;;
74328;SDS011;62745;51.060;13.786;2023-05-07T14:04:40;5.53;;;3.20;;
74328;SDS011;62745;51.060;13.786;2023-05-07T14:07:06;5.10;;;2.90;;
74328;SDS011;62745;51.060;13.786;2023-05-07T14:09:31;4.97;;;2.73;;
74328;SDS011;62745;51.060;13.786;2023-05-07T14:11:56;4.90;;;3.00;;
74328;SDS011;62745;51.060;13.786;2023-05-07T14:14:21;5.30;;;2.77;;
74328;SDS011;62745;51.060;13.786;2023-05-07T14:16:47;5.57;;;2.90;;
74328;SDS011;62745;51.060;13.786;2023-05-07T14:19:16;5.43;;;3.08;;
74328;SDS011;62745;51.060;13.786;2023-05-07T14:21:43;4.50;;;2.72;;
74328;SDS011;62745;51.060;13.786;2023-05-07T14:24:10;5.10;;;2.47;;
74328;SDS011;62745;51.060;13.786;2023-05-07T14:26:40;3.75;;;2.30;;
74328;SDS011;62745;51.060;13.786;2023-05-07T14:29:17;4.55;;;2.70;;
74328;SDS011;62745;51.060;13.786;2023-05-07T14:31:44;4.70;;;2.70;;
74328;SDS011;62745;51.060;13.786;2023-05-07T14:34:10;4.95;;;2.45;;
74328;SDS011;62745;51.060;13.786;2023-05-07T14:36:36;4.20;;;2.50;;
74328;SDS011;62745;51.060;13.786;2023-05-07T14:39:05;5.22;;;2.33;;
74328;SDS011;62745;51.060;13.786;2023-05-07T14:41:31;4.97;;;2.80;;
74328;SDS011;62745;51.060;13.786;2023-05-07T14:44:01;5.65;;;2.38;;
74328;SDS011;62745;51.060;13.786;2023-05-07T14:46:30;5.38;;;3.03;;
74328;SDS011;62745;51.060;13.786;2023-05-07T14:49:06;5.15;;;2.85;;